Westview Chinook — VG3278 — position and weather

sailwx.info

Track history (hours):
 
Tides and Currents Weather Stations Pressure Air Temp Water Temp Dewpoint Dewpoint Depression Visibility Wind Speed Wind Dir Waves Ship Positions

Westview Chinook

Last reported at 2014-Jul-31 04:34 UTC. Time now 2014-Jul-31 05:23 UTC.
Position N 49°09' W 122°58'.

Length 16 m; draft 3.5 m.

Type: Towing. MMSI: 316005622.

Date/timePositionNaut miles runAvg speedWind from/ knotsBaromVisibWave heightAir tempDewpointWater temp
2014-Jul-31 04:34N 49°09' W 122°58'0 0.1
2014-Jul-31 03:33N 49°09' W 122°58'0 0.1
2014-Jul-31 02:34N 49°09' W 122°58'4 4.2
2014-Jul-31 01:33N 49°12' W 122°54'6 6.1
2014-Jul-31 00:33N 49°13' W 122°44'5 4.7
2014-Jul-30 23:34N 49°13' W 122°37'6 5.9
2014-Jul-30 22:31N 49°10' W 122°28'6 6.4
2014-Jul-30 21:32N 49°07' W 122°20'6 6.1
2014-Jul-30 20:32N 49°08' W 122°11'0 0.1
2014-Jul-30 19:34N 49°08' W 122°10'3 2.9
2014-Jul-30 18:25N 49°09' W 122°16'1 1.1
2014-Jul-30 17:23N 49°08' W 122°14'3 2.6
2014-Jul-30 16:25N 49°08' W 122°10'1 1.2
2014-Jul-30 15:32N 49°08' W 122°12'4 3.3
2014-Jul-30 14:24N 49°08' W 122°18'5 4.7
2014-Jul-30 13:24N 49°08' W 122°10'4 4.7
2014-Jul-30 12:32N 49°08' W 122°17'4 3.8
2014-Jul-30 11:32N 49°08' W 122°22'5 4.6
2014-Jul-30 10:23N 49°10' W 122°30'4 5.1
2014-Jul-30 09:33N 49°12' W 122°36'5 4.7
2014-Jul-30 08:33N 49°13' W 122°43'6 5.6
2014-Jul-30 07:33N 49°13' W 122°51'1 1.0
2014-Jul-30 06:33N 49°13' W 122°53'6 5.8
2014-Jul-30 05:33N 49°15' W 122°44'7 6.5
2014-Jul-30 04:33N 49°13' W 122°53'6 5.8
2014-Jul-30 03:33N 49°09' W 123°01'4 3.7
2014-Jul-30 02:33N 49°07' W 123°05'7 6.6
2014-Jul-30 01:33N 49°10' W 122°56'4 3.5
2014-Jul-30 00:33N 49°13' W 122°53'3 3.0
2014-Jul-29 23:33N 49°10' W 122°56'2 1.5
2014-Jul-29 22:33N 49°12' W 122°56'3 2.8
2014-Jul-29 21:33N 49°12' W 123°00'3 3.3
2014-Jul-29 20:33N 49°12' W 123°05'7 6.6
2014-Jul-29 19:33N 49°12' W 122°55'4 4.2
2014-Jul-29 18:33N 49°09' W 123°00'0 0.0
2014-Jul-29 17:33N 49°09' W 123°00'1 1.2
2014-Jul-29 16:34N 49°09' W 123°02'4 3.9
2014-Jul-29 15:34N 49°10' W 122°56'4 3.6
2014-Jul-29 14:33N 49°13' W 122°53'3 3.3
2014-Jul-29 13:33N 49°13' W 122°48'5 4.9
2014-Jul-29 12:31N 49°11' W 122°41'3 2.9
2014-Jul-29 11:33N 49°13' W 122°44'3 2.6
2014-Jul-29 10:34N 49°13' W 122°48'4 4.0
2014-Jul-29 09:33N 49°12' W 122°54'1 1.3
2014-Jul-29 08:34N 49°11' W 122°55'2 2.0
2014-Jul-29 07:33N 49°13' W 122°54'1 1.2
2014-Jul-29 06:33N 49°13' W 122°52'5 5.3
2014-Jul-29 05:34N 49°13' W 122°44'6 5.9
2014-Jul-29 04:33N 49°12' W 122°35'6 6.1
2014-Jul-29 03:33N 49°10' W 122°26'5 5.5
2014-Jul-29 02:33N 49°07' W 122°19'4 3.6
2014-Jul-29 01:33N 49°08' W 122°14'2 1.3
2014-Jul-29 00:07N 49°08' W 122°11'3 1.9
2014-Jul-28 22:32N 49°09' W 122°16'3 3.4
2014-Jul-28 21:32N 49°08' W 122°10'2 1.4
2014-Jul-28 20:27N 49°08' W 122°13'4 3.8
2014-Jul-28 19:23N 49°07' W 122°19'6 5.0
2014-Jul-28 18:16N 49°08' W 122°10'0 0.4
2014-Jul-28 17:28N 49°08' W 122°11'4 4.4
2014-Jul-28 16:33N 49°08' W 122°17'3 2.8
2014-Jul-28 15:33N 49°08' W 122°21'5 4.5
2014-Jul-28 14:32N 49°10' W 122°27'5 4.8
2014-Jul-28 13:33N 49°11' W 122°34'4 4.2
2014-Jul-28 12:33N 49°12' W 122°41'5 5.3
2014-Jul-28 11:34N 49°13' W 122°49'3 3.0
2014-Jul-28 10:33N 49°13' W 122°53'3 2.9
2014-Jul-28 09:33N 49°12' W 122°57'4 3.5
2014-Jul-28 08:33N 49°12' W 123°02'5 5.4
2014-Jul-28 07:34N 49°12' W 122°54'1 1.4
2014-Jul-28 06:34N 49°13' W 122°53'4 4.3
2014-Jul-28 05:34N 49°10' W 122°56'2 1.6
2014-Jul-28 04:34N 49°09' W 122°59'6 5.8
2014-Jul-28 03:33N 49°13' W 122°52'5 4.8
2014-Jul-28 02:34N 49°13' W 122°45'1 0.6
2014-Jul-28 01:34N 49°13' W 122°44'2 1.6
2014-Jul-28 00:33N 49°14' W 122°46'0 0.0
2014-Jul-27 23:33N 49°14' W 122°46'0 0.0
2014-Jul-27 22:33N 49°14' W 122°46'0 0.0
2014-Jul-27 21:33N 49°14' W 122°46'0 0.0
2014-Jul-27 20:33N 49°14' W 122°46'0 0.0
2014-Jul-27 19:33N 49°14' W 122°46'0 0.0
2014-Jul-27 18:33N 49°14' W 122°46'0 0.0
2014-Jul-27 17:33N 49°14' W 122°46'0 0.0
2014-Jul-27 16:33N 49°14' W 122°46'0 0.0
2014-Jul-27 15:33N 49°14' W 122°46'0 0.0
2014-Jul-27 14:33N 49°14' W 122°46'0 0.0
2014-Jul-27 13:33N 49°14' W 122°46'0 0.0
2014-Jul-27 12:33N 49°14' W 122°46'0 0.0
2014-Jul-27 11:33N 49°14' W 122°46'0 0.0
2014-Jul-27 10:33N 49°14' W 122°46'0 0.0
2014-Jul-27 09:33N 49°14' W 122°46'0 0.0
2014-Jul-27 08:33N 49°14' W 122°46'0 0.0
2014-Jul-27 07:33N 49°14' W 122°46'2 1.9
2014-Jul-27 06:33N 49°13' W 122°48'7 7.4
2014-Jul-27 05:33N 49°11' W 122°59'7 7.5
2014-Jul-27 04:33N 49°13' W 123°10'5 4.6
2014-Jul-27 03:33N 49°15' W 123°16'4 4.4
2014-Jul-27 02:33N 49°13' W 123°11'3 3.2
2014-Jul-27 01:33N 49°12' W 123°06'1 1.2
2014-Jul-27 00:33N 49°12' W 123°04'8 8.1
2014-Jul-26 23:33N 49°13' W 122°52'4 4.0
2014-Jul-26 22:34N 49°14' W 122°46'0 0.0
2014-Jul-26 21:33N 49°14' W 122°46'0 0.0
2014-Jul-26 20:33N 49°14' W 122°46'0 0.0
2014-Jul-26 19:33N 49°14' W 122°46'0 0.0
2014-Jul-26 18:33N 49°14' W 122°46'0 0.0
2014-Jul-26 17:33N 49°14' W 122°46'0 0.0
2014-Jul-26 16:33N 49°14' W 122°46'0 0.0
2014-Jul-26 15:33N 49°14' W 122°46'0 0.0
2014-Jul-26 14:33N 49°14' W 122°46'0 0.0
2014-Jul-26 13:33N 49°14' W 122°46'0 0.0
2014-Jul-26 12:33N 49°14' W 122°46'0 0.0
2014-Jul-26 11:33N 49°14' W 122°46'0 0.0
2014-Jul-26 10:33N 49°14' W 122°46'0 0.0
2014-Jul-26 09:33N 49°14' W 122°46'0 0.0
2014-Jul-26 08:33N 49°14' W 122°46'0 0.0
2014-Jul-26 07:33N 49°14' W 122°46'0 0.0
2014-Jul-26 06:33N 49°14' W 122°46'0 0.0
2014-Jul-26 05:33N 49°14' W 122°46'0 0.0
2014-Jul-26 04:33N 49°14' W 122°46'0 0.0
2014-Jul-26 03:33N 49°14' W 122°46'0 0.0
2014-Jul-26 02:33N 49°14' W 122°46'0 0.0
2014-Jul-26 01:33N 49°14' W 122°46'0 0.0
2014-Jul-26 00:33N 49°14' W 122°46'0 0.0
2014-Jul-25 23:33N 49°14' W 122°46'2 2.2
2014-Jul-25 22:33N 49°13' W 122°49'6 6.1
2014-Jul-25 21:33N 49°11' W 122°58'4 4.2
2014-Jul-25 20:33N 49°12' W 123°04'2 1.6
2014-Jul-25 19:33N 49°12' W 123°07'2 1.9
2014-Jul-25 18:33N 49°13' W 123°09'2 1.9
2014-Jul-25 17:33N 49°13' W 123°12'2 1.9
2014-Jul-25 16:33N 49°14' W 123°14'2 2.2
2014-Jul-25 15:33N 49°16' W 123°17'5 4.8
2014-Jul-25 14:33N 49°13' W 123°11'2 2.1
2014-Jul-25 13:34N 49°12' W 123°08'0 0.0
2014-Jul-25 12:34N 49°12' W 123°08'0 0.0
2014-Jul-25 11:34N 49°12' W 123°08'7 6.9
2014-Jul-25 10:34N 49°11' W 122°58'2 1.8
2014-Jul-25 09:33N 49°10' W 122°56'7 7.5
2014-Jul-25 08:34N 49°13' W 122°46'4 4.0
2014-Jul-25 07:34N 49°12' W 122°40'6 6.0
2014-Jul-25 06:34N 49°13' W 122°49'6 5.9
2014-Jul-25 05:34N 49°11' W 122°57'6 6.1
2014-Jul-25 04:34N 49°12' W 123°07'6 6.3
2014-Jul-25 03:34N 49°15' W 123°15'7 7.0
2014-Jul-25 02:34N 49°12' W 123°05'1 0.8
2014-Jul-25 01:33N 49°12' W 123°04'4 3.9
2014-Jul-25 00:33N 49°11' W 122°59'1 1.3
2014-Jul-24 23:34N 49°10' W 122°58'2 1.5
2014-Jul-24 22:33N 49°10' W 122°56'4 4.2
2014-Jul-24 21:33N 49°13' W 122°52'3 3.5
2014-Jul-24 20:33N 49°13' W 122°47'4 3.8
2014-Jul-24 19:33N 49°11' W 122°41'1 1.2
2014-Jul-24 18:33N 49°11' W 122°43'4 3.6
2014-Jul-24 17:33N 49°15' W 122°44'2 1.9
2014-Jul-24 16:33N 49°13' W 122°45'2 1.9
2014-Jul-24 15:34N 49°15' W 122°44'1 1.1
2014-Jul-24 14:33N 49°14' W 122°45'0 0.4
2014-Jul-24 13:33N 49°14' W 122°46'3 3.4
2014-Jul-24 12:33N 49°13' W 122°51'6 5.9
2014-Jul-24 11:33N 49°10' W 122°58'4 4.5
2014-Jul-24 10:33N 49°13' W 122°53'7 7.1
2014-Jul-24 09:34N 49°12' W 122°42'7 6.8
2014-Jul-24 08:34N 49°10' W 122°33'7 7.2
2014-Jul-24 07:33N 49°08' W 122°22'6 6.3
2014-Jul-24 06:32N 49°08' W 122°12'1 0.5
2014-Jul-24 05:32N 49°08' W 122°13'4 3.8
2014-Jul-24 04:29N 49°07' W 122°19'7 5.6
2014-Jul-24 03:15N 49°10' W 122°29'4 6.2
2014-Jul-24 02:33N 49°11' W 122°35'6 5.8
2014-Jul-24 01:33N 49°13' W 122°44'2 1.9
2014-Jul-24 00:33N 49°14' W 122°46'3 3.0
2014-Jul-23 23:33N 49°13' W 122°51'6 6.5
2014-Jul-23 22:33N 49°09' W 122°59'5 5.0
2014-Jul-23 21:33N 49°07' W 123°05'4 4.0
2014-Jul-23 20:33N 49°07' W 123°12'0 0.0
2014-Jul-23 19:33N 49°07' W 123°11'9 9.5
2014-Jul-23 18:34N 49°09' W 122°57'9 8.6
2014-Jul-23 17:33N 49°14' W 122°46'0 0.0
2014-Jul-23 16:33N 49°14' W 122°46'0 0.0
2014-Jul-23 15:33N 49°14' W 122°46'0 0.0
2014-Jul-23 14:33N 49°14' W 122°46'0 0.0
2014-Jul-23 13:33N 49°14' W 122°46'2 1.8
2014-Jul-23 12:33N 49°13' W 122°48'1 1.0
2014-Jul-23 11:34N 49°13' W 122°47'4 4.0
2014-Jul-23 10:33N 49°11' W 122°41'5 4.9
2014-Jul-23 09:33N 49°13' W 122°48'7 7.4
2014-Jul-23 08:34N 49°09' W 122°58'5 5.3
2014-Jul-23 07:33N 49°07' W 123°05'5 5.4
2014-Jul-23 06:34N 49°09' W 122°58'7 7.1
2014-Jul-23 05:34N 49°13' W 122°49'8 7.8
2014-Jul-23 04:34N 49°13' W 122°37'7 4.5
2014-Jul-23 03:04N 49°10' W 122°27'3 6.8
2014-Jul-23 02:34N 49°10' W 122°32'6 6.4
2014-Jul-23 01:33N 49°12' W 122°42'3 3.5
2014-Jul-23 00:33N 49°14' W 122°46'0 0.0
2014-Jul-22 23:33N 49°14' W 122°46'2 2.5
2014-Jul-22 22:33N 49°13' W 122°50'2 1.9
2014-Jul-22 21:33N 49°13' W 122°47'4 3.9
2014-Jul-22 20:31N 49°11' W 122°41'0 0.3
2014-Jul-22 19:32N 49°11' W 122°41'3 2.8
2014-Jul-22 18:33N 49°13' W 122°44'5 4.6
2014-Jul-22 17:33N 49°13' W 122°51'4 4.3
2014-Jul-22 16:33N 49°10' W 122°56'1 1.5
2014-Jul-22 15:33N 49°10' W 122°58'6 5.6
2014-Jul-22 14:33N 49°13' W 122°52'0 0.4
2014-Jul-22 13:33N 49°13' W 122°52'4 3.9
2014-Jul-22 12:33N 49°14' W 122°46'4 4.5
2014-Jul-22 11:33N 49°11' W 122°41'5 4.8
2014-Jul-22 10:33N 49°13' W 122°47'6 5.8
2014-Jul-22 09:33N 49°10' W 122°55'2 1.8
2014-Jul-22 08:34N 49°10' W 122°58'0 0.0
2014-Jul-22 07:34N 49°09' W 122°58'1 0.8
2014-Jul-22 06:34N 49°10' W 122°57'7 7.1
2014-Jul-22 05:34N 49°13' W 122°47'2 2.4
2014-Jul-22 04:34N 49°12' W 122°44'5 5.0
2014-Jul-22 03:34N 49°13' W 122°51'6 5.8
2014-Jul-22 02:33N 49°10' W 122°58'6 5.7
2014-Jul-22 01:34N 49°13' W 122°51'1 0.7
2014-Jul-22 00:34N 49°13' W 122°52'6 6.0
2014-Jul-21 23:33N 49°12' W 122°43'0 0.4
2014-Jul-21 22:34N 49°12' W 122°44'6 6.1
2014-Jul-21 21:34N 49°13' W 122°53'6 5.6
2014-Jul-21 20:34N 49°12' W 123°01'2 6.5
2014-Jul-21 20:18N 49°12' W 123°04'4 5.9
2014-Jul-21 19:34N 49°13' W 123°10'2 1.9
2014-Jul-21 18:33N 49°14' W 123°13'4 3.7
2014-Jul-21 17:33N 49°15' W 123°18'1 0.9
2014-Jul-21 16:34N 49°16' W 123°17'5 5.3
2014-Jul-21 15:33N 49°19' W 123°10'2 2.3
2014-Jul-21 14:33N 49°18' W 123°07'2 1.5
2014-Jul-21 13:34N 49°17' W 123°05'1 0.5
2014-Jul-21 12:33N 49°17' W 123°04'0 0.1
2014-Jul-21 11:33N 49°17' W 123°04'8 8.3
2014-Jul-21 10:33N 49°17' W 123°17'4 4.4
2014-Jul-21 09:33N 49°15' W 123°23'10 9.7
2014-Jul-21 08:33N 49°14' W 123°38'10 9.8
2014-Jul-21 07:33N 49°12' W 123°53'0 0.4
2014-Jul-21 06:33N 49°12' W 123°52'8 8.0
2014-Jul-21 05:33N 49°10' W 123°40'  
Track history (hours):
 
Tides and Currents Weather Stations Pressure Air Temp Water Temp Dewpoint Dewpoint Depression Visibility Wind Speed Wind Dir Waves Ship Positions

Westview Chinook

Last reported at 2014-Jul-31 04:34 UTC. Time now 2014-Jul-31 05:23 UTC.
Position N 49°09' W 122°58'.

Length 16 m; draft 3.5 m.

Type: Towing. MMSI: 316005622.

Date/timePositionNaut miles runAvg speedWind from/ knotsBaromVisibWave heightAir tempDewpointWater temp
2014-Jul-31 04:34N 49°09' W 122°58'0 0.1
2014-Jul-31 03:33N 49°09' W 122°58'0 0.1
2014-Jul-31 02:34N 49°09' W 122°58'4 4.2
2014-Jul-31 01:33N 49°12' W 122°54'6 6.1
2014-Jul-31 00:33N 49°13' W 122°44'5 4.7
2014-Jul-30 23:34N 49°13' W 122°37'6 5.9
2014-Jul-30 22:31N 49°10' W 122°28'6 6.4
2014-Jul-30 21:32N 49°07' W 122°20'6 6.1
2014-Jul-30 20:32N 49°08' W 122°11'0 0.1
2014-Jul-30 19:34N 49°08' W 122°10'3 2.9
2014-Jul-30 18:25N 49°09' W 122°16'1 1.1
2014-Jul-30 17:23N 49°08' W 122°14'3 2.6
2014-Jul-30 16:25N 49°08' W 122°10'1 1.2
2014-Jul-30 15:32N 49°08' W 122°12'4 3.3
2014-Jul-30 14:24N 49°08' W 122°18'5 4.7
2014-Jul-30 13:24N 49°08' W 122°10'4 4.7
2014-Jul-30 12:32N 49°08' W 122°17'4 3.8
2014-Jul-30 11:32N 49°08' W 122°22'5 4.6
2014-Jul-30 10:23N 49°10' W 122°30'4 5.1
2014-Jul-30 09:33N 49°12' W 122°36'5 4.7
2014-Jul-30 08:33N 49°13' W 122°43'6 5.6
2014-Jul-30 07:33N 49°13' W 122°51'1 1.0
2014-Jul-30 06:33N 49°13' W 122°53'6 5.8
2014-Jul-30 05:33N 49°15' W 122°44'7 6.5
2014-Jul-30 04:33N 49°13' W 122°53'6 5.8
2014-Jul-30 03:33N 49°09' W 123°01'4 3.7
2014-Jul-30 02:33N 49°07' W 123°05'7 6.6
2014-Jul-30 01:33N 49°10' W 122°56'4 3.5
2014-Jul-30 00:33N 49°13' W 122°53'3 3.0
2014-Jul-29 23:33N 49°10' W 122°56'2 1.5
2014-Jul-29 22:33N 49°12' W 122°56'3 2.8
2014-Jul-29 21:33N 49°12' W 123°00'3 3.3
2014-Jul-29 20:33N 49°12' W 123°05'7 6.6
2014-Jul-29 19:33N 49°12' W 122°55'4 4.2
2014-Jul-29 18:33N 49°09' W 123°00'0 0.0
2014-Jul-29 17:33N 49°09' W 123°00'1 1.2
2014-Jul-29 16:34N 49°09' W 123°02'4 3.9
2014-Jul-29 15:34N 49°10' W 122°56'4 3.6
2014-Jul-29 14:33N 49°13' W 122°53'3 3.3
2014-Jul-29 13:33N 49°13' W 122°48'5 4.9
2014-Jul-29 12:31N 49°11' W 122°41'3 2.9
2014-Jul-29 11:33N 49°13' W 122°44'3 2.6
2014-Jul-29 10:34N 49°13' W 122°48'4 4.0
2014-Jul-29 09:33N 49°12' W 122°54'1 1.3
2014-Jul-29 08:34N 49°11' W 122°55'2 2.0
2014-Jul-29 07:33N 49°13' W 122°54'1 1.2
2014-Jul-29 06:33N 49°13' W 122°52'5 5.3
2014-Jul-29 05:34N 49°13' W 122°44'6 5.9
2014-Jul-29 04:33N 49°12' W 122°35'6 6.1
2014-Jul-29 03:33N 49°10' W 122°26'5 5.5
2014-Jul-29 02:33N 49°07' W 122°19'4 3.6
2014-Jul-29 01:33N 49°08' W 122°14'2 1.3
2014-Jul-29 00:07N 49°08' W 122°11'3 1.9
2014-Jul-28 22:32N 49°09' W 122°16'3 3.4
2014-Jul-28 21:32N 49°08' W 122°10'2 1.4
2014-Jul-28 20:27N 49°08' W 122°13'4 3.8
2014-Jul-28 19:23N 49°07' W 122°19'6 5.0
2014-Jul-28 18:16N 49°08' W 122°10'0 0.4
2014-Jul-28 17:28N 49°08' W 122°11'4 4.4
2014-Jul-28 16:33N 49°08' W 122°17'3 2.8
2014-Jul-28 15:33N 49°08' W 122°21'5 4.5
2014-Jul-28 14:32N 49°10' W 122°27'5 4.8
2014-Jul-28 13:33N 49°11' W 122°34'4 4.2
2014-Jul-28 12:33N 49°12' W 122°41'5 5.3
2014-Jul-28 11:34N 49°13' W 122°49'3 3.0
2014-Jul-28 10:33N 49°13' W 122°53'3 2.9
2014-Jul-28 09:33N 49°12' W 122°57'4 3.5
2014-Jul-28 08:33N 49°12' W 123°02'5 5.4
2014-Jul-28 07:34N 49°12' W 122°54'1 1.4
2014-Jul-28 06:34N 49°13' W 122°53'4 4.3
2014-Jul-28 05:34N 49°10' W 122°56'2 1.6
2014-Jul-28 04:34N 49°09' W 122°59'6 5.8
2014-Jul-28 03:33N 49°13' W 122°52'5 4.8
2014-Jul-28 02:34N 49°13' W 122°45'1 0.6
2014-Jul-28 01:34N 49°13' W 122°44'2 1.6
2014-Jul-28 00:33N 49°14' W 122°46'0 0.0
2014-Jul-27 23:33N 49°14' W 122°46'0 0.0
2014-Jul-27 22:33N 49°14' W 122°46'0 0.0
2014-Jul-27 21:33N 49°14' W 122°46'0 0.0
2014-Jul-27 20:33N 49°14' W 122°46'0 0.0
2014-Jul-27 19:33N 49°14' W 122°46'0 0.0
2014-Jul-27 18:33N 49°14' W 122°46'0 0.0
2014-Jul-27 17:33N 49°14' W 122°46'0 0.0
2014-Jul-27 16:33N 49°14' W 122°46'0 0.0
2014-Jul-27 15:33N 49°14' W 122°46'0 0.0
2014-Jul-27 14:33N 49°14' W 122°46'0 0.0
2014-Jul-27 13:33N 49°14' W 122°46'0 0.0
2014-Jul-27 12:33N 49°14' W 122°46'0 0.0
2014-Jul-27 11:33N 49°14' W 122°46'0 0.0
2014-Jul-27 10:33N 49°14' W 122°46'0 0.0
2014-Jul-27 09:33N 49°14' W 122°46'0 0.0
2014-Jul-27 08:33N 49°14' W 122°46'0 0.0
2014-Jul-27 07:33N 49°14' W 122°46'2 1.9
2014-Jul-27 06:33N 49°13' W 122°48'7 7.4
2014-Jul-27 05:33N 49°11' W 122°59'7 7.5
2014-Jul-27 04:33N 49°13' W 123°10'5 4.6
2014-Jul-27 03:33N 49°15' W 123°16'4 4.4
2014-Jul-27 02:33N 49°13' W 123°11'3 3.2
2014-Jul-27 01:33N 49°12' W 123°06'1 1.2
2014-Jul-27 00:33N 49°12' W 123°04'8 8.1
2014-Jul-26 23:33N 49°13' W 122°52'4 4.0
2014-Jul-26 22:34N 49°14' W 122°46'0 0.0
2014-Jul-26 21:33N 49°14' W 122°46'0 0.0
2014-Jul-26 20:33N 49°14' W 122°46'0 0.0
2014-Jul-26 19:33N 49°14' W 122°46'0 0.0
2014-Jul-26 18:33N 49°14' W 122°46'0 0.0
2014-Jul-26 17:33N 49°14' W 122°46'0 0.0
2014-Jul-26 16:33N 49°14' W 122°46'0 0.0
2014-Jul-26 15:33N 49°14' W 122°46'0 0.0
2014-Jul-26 14:33N 49°14' W 122°46'0 0.0
2014-Jul-26 13:33N 49°14' W 122°46'0 0.0
2014-Jul-26 12:33N 49°14' W 122°46'0 0.0
2014-Jul-26 11:33N 49°14' W 122°46'0 0.0
2014-Jul-26 10:33N 49°14' W 122°46'0 0.0
2014-Jul-26 09:33N 49°14' W 122°46'0 0.0
2014-Jul-26 08:33N 49°14' W 122°46'0 0.0
2014-Jul-26 07:33N 49°14' W 122°46'0 0.0
2014-Jul-26 06:33N 49°14' W 122°46'0 0.0
2014-Jul-26 05:33N 49°14' W 122°46'0 0.0
2014-Jul-26 04:33N 49°14' W 122°46'0 0.0
2014-Jul-26 03:33N 49°14' W 122°46'0 0.0
2014-Jul-26 02:33N 49°14' W 122°46'0 0.0
2014-Jul-26 01:33N 49°14' W 122°46'0 0.0
2014-Jul-26 00:33N 49°14' W 122°46'0 0.0
2014-Jul-25 23:33N 49°14' W 122°46'2 2.2
2014-Jul-25 22:33N 49°13' W 122°49'6 6.1
2014-Jul-25 21:33N 49°11' W 122°58'4 4.2
2014-Jul-25 20:33N 49°12' W 123°04'2 1.6
2014-Jul-25 19:33N 49°12' W 123°07'2 1.9
2014-Jul-25 18:33N 49°13' W 123°09'2 1.9
2014-Jul-25 17:33N 49°13' W 123°12'2 1.9
2014-Jul-25 16:33N 49°14' W 123°14'2 2.2
2014-Jul-25 15:33N 49°16' W 123°17'5 4.8
2014-Jul-25 14:33N 49°13' W 123°11'2 2.1
2014-Jul-25 13:34N 49°12' W 123°08'0 0.0
2014-Jul-25 12:34N 49°12' W 123°08'0 0.0
2014-Jul-25 11:34N 49°12' W 123°08'7 6.9
2014-Jul-25 10:34N 49°11' W 122°58'2 1.8
2014-Jul-25 09:33N 49°10' W 122°56'7 7.5
2014-Jul-25 08:34N 49°13' W 122°46'4 4.0
2014-Jul-25 07:34N 49°12' W 122°40'6 6.0
2014-Jul-25 06:34N 49°13' W 122°49'6 5.9
2014-Jul-25 05:34N 49°11' W 122°57'6 6.1
2014-Jul-25 04:34N 49°12' W 123°07'6 6.3
2014-Jul-25 03:34N 49°15' W 123°15'7 7.0
2014-Jul-25 02:34N 49°12' W 123°05'1 0.8
2014-Jul-25 01:33N 49°12' W 123°04'4 3.9
2014-Jul-25 00:33N 49°11' W 122°59'1 1.3
2014-Jul-24 23:34N 49°10' W 122°58'2 1.5
2014-Jul-24 22:33N 49°10' W 122°56'4 4.2
2014-Jul-24 21:33N 49°13' W 122°52'3 3.5
2014-Jul-24 20:33N 49°13' W 122°47'4 3.8
2014-Jul-24 19:33N 49°11' W 122°41'1 1.2
2014-Jul-24 18:33N 49°11' W 122°43'4 3.6
2014-Jul-24 17:33N 49°15' W 122°44'2 1.9
2014-Jul-24 16:33N 49°13' W 122°45'2 1.9
2014-Jul-24 15:34N 49°15' W 122°44'1 1.1
2014-Jul-24 14:33N 49°14' W 122°45'0 0.4
2014-Jul-24 13:33N 49°14' W 122°46'3 3.4
2014-Jul-24 12:33N 49°13' W 122°51'6 5.9
2014-Jul-24 11:33N 49°10' W 122°58'4 4.5
2014-Jul-24 10:33N 49°13' W 122°53'7 7.1
2014-Jul-24 09:34N 49°12' W 122°42'7 6.8
2014-Jul-24 08:34N 49°10' W 122°33'7 7.2
2014-Jul-24 07:33N 49°08' W 122°22'6 6.3
2014-Jul-24 06:32N 49°08' W 122°12'1 0.5
2014-Jul-24 05:32N 49°08' W 122°13'4 3.8
2014-Jul-24 04:29N 49°07' W 122°19'7 5.6
2014-Jul-24 03:15N 49°10' W 122°29'4 6.2
2014-Jul-24 02:33N 49°11' W 122°35'6 5.8
2014-Jul-24 01:33N 49°13' W 122°44'2 1.9
2014-Jul-24 00:33N 49°14' W 122°46'3 3.0
2014-Jul-23 23:33N 49°13' W 122°51'6 6.5
2014-Jul-23 22:33N 49°09' W 122°59'5 5.0
2014-Jul-23 21:33N 49°07' W 123°05'4 4.0
2014-Jul-23 20:33N 49°07' W 123°12'0 0.0
2014-Jul-23 19:33N 49°07' W 123°11'9 9.5
2014-Jul-23 18:34N 49°09' W 122°57'9 8.6
2014-Jul-23 17:33N 49°14' W 122°46'0 0.0
2014-Jul-23 16:33N 49°14' W 122°46'0 0.0
2014-Jul-23 15:33N 49°14' W 122°46'0 0.0
2014-Jul-23 14:33N 49°14' W 122°46'0 0.0
2014-Jul-23 13:33N 49°14' W 122°46'2 1.8
2014-Jul-23 12:33N 49°13' W 122°48'1 1.0
2014-Jul-23 11:34N 49°13' W 122°47'4 4.0
2014-Jul-23 10:33N 49°11' W 122°41'5 4.9
2014-Jul-23 09:33N 49°13' W 122°48'7 7.4
2014-Jul-23 08:34N 49°09' W 122°58'5 5.3
2014-Jul-23 07:33N 49°07' W 123°05'5 5.4
2014-Jul-23 06:34N 49°09' W 122°58'7 7.1
2014-Jul-23 05:34N 49°13' W 122°49'8 7.8
2014-Jul-23 04:34N 49°13' W 122°37'7 4.5
2014-Jul-23 03:04N 49°10' W 122°27'3 6.8
2014-Jul-23 02:34N 49°10' W 122°32'6 6.4
2014-Jul-23 01:33N 49°12' W 122°42'3 3.5
2014-Jul-23 00:33N 49°14' W 122°46'0 0.0
2014-Jul-22 23:33N 49°14' W 122°46'2 2.5
2014-Jul-22 22:33N 49°13' W 122°50'2 1.9
2014-Jul-22 21:33N 49°13' W 122°47'4 3.9
2014-Jul-22 20:31N 49°11' W 122°41'0 0.3
2014-Jul-22 19:32N 49°11' W 122°41'3 2.8
2014-Jul-22 18:33N 49°13' W 122°44'5 4.6
2014-Jul-22 17:33N 49°13' W 122°51'4 4.3
2014-Jul-22 16:33N 49°10' W 122°56'1 1.5
2014-Jul-22 15:33N 49°10' W 122°58'6 5.6
2014-Jul-22 14:33N 49°13' W 122°52'0 0.4
2014-Jul-22 13:33N 49°13' W 122°52'4 3.9
2014-Jul-22 12:33N 49°14' W 122°46'4 4.5
2014-Jul-22 11:33N 49°11' W 122°41'5 4.8
2014-Jul-22 10:33N 49°13' W 122°47'6 5.8
2014-Jul-22 09:33N 49°10' W 122°55'2 1.8
2014-Jul-22 08:34N 49°10' W 122°58'0 0.0
2014-Jul-22 07:34N 49°09' W 122°58'1 0.8
2014-Jul-22 06:34N 49°10' W 122°57'7 7.1
2014-Jul-22 05:34N 49°13' W 122°47'2 2.4
2014-Jul-22 04:34N 49°12' W 122°44'5 5.0
2014-Jul-22 03:34N 49°13' W 122°51'6 5.8
2014-Jul-22 02:33N 49°10' W 122°58'6 5.7
2014-Jul-22 01:34N 49°13' W 122°51'1 0.7
2014-Jul-22 00:34N 49°13' W 122°52'6 6.0
2014-Jul-21 23:33N 49°12' W 122°43'0 0.4
2014-Jul-21 22:34N 49°12' W 122°44'6 6.1
2014-Jul-21 21:34N 49°13' W 122°53'6 5.6
2014-Jul-21 20:34N 49°12' W 123°01'2 6.5
2014-Jul-21 20:18N 49°12' W 123°04'4 5.9
2014-Jul-21 19:34N 49°13' W 123°10'2 1.9
2014-Jul-21 18:33N 49°14' W 123°13'4 3.7
2014-Jul-21 17:33N 49°15' W 123°18'1 0.9
2014-Jul-21 16:34N 49°16' W 123°17'5 5.3
2014-Jul-21 15:33N 49°19' W 123°10'2 2.3
2014-Jul-21 14:33N 49°18' W 123°07'2 1.5
2014-Jul-21 13:34N 49°17' W 123°05'1 0.5
2014-Jul-21 12:33N 49°17' W 123°04'0 0.1
2014-Jul-21 11:33N 49°17' W 123°04'8 8.3
2014-Jul-21 10:33N 49°17' W 123°17'4 4.4
2014-Jul-21 09:33N 49°15' W 123°23'10 9.7
2014-Jul-21 08:33N 49°14' W 123°38'10 9.8
2014-Jul-21 07:33N 49°12' W 123°53'0 0.4
2014-Jul-21 06:33N 49°12' W 123°52'8 8.0
2014-Jul-21 05:33N 49°10' W 123°40'  

Dump ship's entire track history